sensor_id;sensor_type;location;lat;lon;timestamp;P1;durP1;ratioP1;P2;durP2;ratioP2
23434;SDS011;11890;45.380;11.028;2022-11-20T00:01:25;9.55;;;5.32;;
23434;SDS011;11890;45.380;11.028;2022-11-20T00:03:54;19.58;;;5.40;;
23434;SDS011;11890;45.380;11.028;2022-11-20T00:06:24;7.00;;;5.03;;
23434;SDS011;11890;45.380;11.028;2022-11-20T00:08:54;10.63;;;5.35;;
23434;SDS011;11890;45.380;11.028;2022-11-20T00:11:23;11.50;;;5.32;;
23434;SDS011;11890;45.380;11.028;2022-11-20T00:13:53;17.02;;;6.00;;
23434;SDS011;11890;45.380;11.028;2022-11-20T00:16:24;11.20;;;5.28;;
23434;SDS011;11890;45.380;11.028;2022-11-20T00:18:53;8.48;;;4.50;;
23434;SDS011;11890;45.380;11.028;2022-11-20T00:21:22;10.20;;;5.00;;
23434;SDS011;11890;45.380;11.028;2022-11-20T00:23:54;9.55;;;5.30;;
23434;SDS011;11890;45.380;11.028;2022-11-20T00:26:23;10.63;;;5.63;;
23434;SDS011;11890;45.380;11.028;2022-11-20T00:28:53;10.73;;;5.93;;
23434;SDS011;11890;45.380;11.028;2022-11-20T00:31:22;10.23;;;4.70;;
23434;SDS011;11890;45.380;11.028;2022-11-20T00:33:50;9.68;;;4.90;;
23434;SDS011;11890;45.380;11.028;2022-11-20T00:36:18;9.48;;;5.55;;
23434;SDS011;11890;45.380;11.028;2022-11-20T00:38:51;10.25;;;4.70;;
23434;SDS011;11890;45.380;11.028;2022-11-20T00:41:22;12.93;;;5.85;;
23434;SDS011;11890;45.380;11.028;2022-11-20T00:43:54;10.48;;;5.07;;
23434;SDS011;11890;45.380;11.028;2022-11-20T00:46:22;10.48;;;5.50;;
23434;SDS011;11890;45.380;11.028;2022-11-20T00:48:51;9.18;;;4.82;;
23434;SDS011;11890;45.380;11.028;2022-11-20T00:51:20;10.65;;;5.65;;
23434;SDS011;11890;45.380;11.028;2022-11-20T00:53:49;13.05;;;4.60;;
23434;SDS011;11890;45.380;11.028;2022-11-20T00:56:17;7.15;;;4.20;;
23434;SDS011;11890;45.380;11.028;2022-11-20T00:58:46;9.38;;;4.65;;
23434;SDS011;11890;45.380;11.028;2022-11-20T01:01:16;9.23;;;3.97;;
23434;SDS011;11890;45.380;11.028;2022-11-20T01:06:17;8.23;;;4.45;;
23434;SDS011;11890;45.380;11.028;2022-11-20T01:08:47;9.13;;;4.97;;
23434;SDS011;11890;45.380;11.028;2022-11-20T01:11:16;11.02;;;5.47;;
23434;SDS011;11890;45.380;11.028;2022-11-20T01:13:46;8.10;;;4.22;;
23434;SDS011;11890;45.380;11.028;2022-11-20T01:16:15;9.75;;;4.57;;
23434;SDS011;11890;45.380;11.028;2022-11-20T01:18:48;9.07;;;4.03;;
23434;SDS011;11890;45.380;11.028;2022-11-20T01:21:21;10.95;;;5.28;;
23434;SDS011;11890;45.380;11.028;2022-11-20T01:23:51;10.45;;;4.00;;
23434;SDS011;11890;45.380;11.028;2022-11-20T01:26:20;8.88;;;5.18;;
23434;SDS011;11890;45.380;11.028;2022-11-20T01:28:50;7.93;;;4.75;;
23434;SDS011;11890;45.380;11.028;2022-11-20T01:31:19;8.90;;;3.95;;
23434;SDS011;11890;45.380;11.028;2022-11-20T01:33:50;8.27;;;4.60;;
23434;SDS011;11890;45.380;11.028;2022-11-20T01:36:19;8.25;;;4.30;;
23434;SDS011;11890;45.380;11.028;2022-11-20T01:38:49;8.35;;;3.55;;
23434;SDS011;11890;45.380;11.028;2022-11-20T01:41:19;8.48;;;4.10;;
23434;SDS011;11890;45.380;11.028;2022-11-20T01:44:06;6.22;;;3.33;;
23434;SDS011;11890;45.380;11.028;2022-11-20T01:46:34;7.45;;;4.10;;
23434;SDS011;11890;45.380;11.028;2022-11-20T01:52:10;7.18;;;4.32;;
23434;SDS011;11890;45.380;11.028;2022-11-20T01:54:46;9.60;;;4.15;;
23434;SDS011;11890;45.380;11.028;2022-11-20T01:57:16;5.95;;;3.05;;
23434;SDS011;11890;45.380;11.028;2022-11-20T01:59:49;7.47;;;3.13;;
23434;SDS011;11890;45.380;11.028;2022-11-20T02:02:23;8.35;;;3.83;;
23434;SDS011;11890;45.380;11.028;2022-11-20T02:04:50;6.97;;;4.43;;
23434;SDS011;11890;45.380;11.028;2022-11-20T02:07:21;7.82;;;4.05;;
23434;SDS011;11890;45.380;11.028;2022-11-20T02:09:50;6.60;;;3.50;;
23434;SDS011;11890;45.380;11.028;2022-11-20T02:12:24;7.63;;;4.40;;
23434;SDS011;11890;45.380;11.028;2022-11-20T02:15:10;9.57;;;4.20;;
23434;SDS011;11890;45.380;11.028;2022-11-20T02:17:37;10.73;;;3.28;;
23434;SDS011;11890;45.380;11.028;2022-11-20T02:20:05;6.25;;;3.97;;
23434;SDS011;11890;45.380;11.028;2022-11-20T02:22:35;6.97;;;3.80;;
23434;SDS011;11890;45.380;11.028;2022-11-20T02:25:10;9.57;;;5.22;;
23434;SDS011;11890;45.380;11.028;2022-11-20T02:27:38;8.43;;;3.97;;
23434;SDS011;11890;45.380;11.028;2022-11-20T02:30:06;6.82;;;3.78;;
23434;SDS011;11890;45.380;11.028;2022-11-20T02:32:35;6.40;;;3.75;;
23434;SDS011;11890;45.380;11.028;2022-11-20T02:37:35;4.85;;;3.25;;
23434;SDS011;11890;45.380;11.028;2022-11-20T02:40:05;8.73;;;4.55;;
23434;SDS011;11890;45.380;11.028;2022-11-20T02:42:34;7.00;;;3.70;;
23434;SDS011;11890;45.380;11.028;2022-11-20T02:45:02;6.47;;;3.88;;
23434;SDS011;11890;45.380;11.028;2022-11-20T02:47:33;7.45;;;4.38;;
23434;SDS011;11890;45.380;11.028;2022-11-20T02:50:01;10.90;;;3.65;;
23434;SDS011;11890;45.380;11.028;2022-11-20T02:52:30;6.45;;;4.07;;
23434;SDS011;11890;45.380;11.028;2022-11-20T02:54:57;6.78;;;3.78;;
23434;SDS011;11890;45.380;11.028;2022-11-20T02:57:25;10.10;;;4.47;;
23434;SDS011;11890;45.380;11.028;2022-11-20T02:59:52;7.40;;;3.92;;
23434;SDS011;11890;45.380;11.028;2022-11-20T03:02:20;6.78;;;3.60;;
23434;SDS011;11890;45.380;11.028;2022-11-20T03:04:47;6.43;;;3.72;;
23434;SDS011;11890;45.380;11.028;2022-11-20T03:07:14;6.85;;;3.97;;
23434;SDS011;11890;45.380;11.028;2022-11-20T03:09:42;6.13;;;3.47;;
23434;SDS011;11890;45.380;11.028;2022-11-20T03:12:09;7.28;;;3.35;;
23434;SDS011;11890;45.380;11.028;2022-11-20T03:14:36;6.00;;;3.80;;
23434;SDS011;11890;45.380;11.028;2022-11-20T03:17:03;5.00;;;3.08;;
23434;SDS011;11890;45.380;11.028;2022-11-20T03:19:31;8.63;;;4.72;;
23434;SDS011;11890;45.380;11.028;2022-11-20T03:21:58;7.80;;;4.60;;
23434;SDS011;11890;45.380;11.028;2022-11-20T03:24:27;8.38;;;4.43;;
23434;SDS011;11890;45.380;11.028;2022-11-20T03:26:54;7.40;;;4.05;;
23434;SDS011;11890;45.380;11.028;2022-11-20T03:29:21;7.80;;;4.47;;
23434;SDS011;11890;45.380;11.028;2022-11-20T03:31:49;7.18;;;4.05;;
23434;SDS011;11890;45.380;11.028;2022-11-20T03:34:16;7.68;;;4.13;;
23434;SDS011;11890;45.380;11.028;2022-11-20T03:36:44;7.30;;;4.07;;
23434;SDS011;11890;45.380;11.028;2022-11-20T03:39:11;11.20;;;4.43;;
23434;SDS011;11890;45.380;11.028;2022-11-20T03:41:39;6.97;;;3.95;;
23434;SDS011;11890;45.380;11.028;2022-11-20T03:44:08;6.07;;;3.95;;
23434;SDS011;11890;45.380;11.028;2022-11-20T03:46:37;7.75;;;3.92;;
23434;SDS011;11890;45.380;11.028;2022-11-20T03:49:05;6.78;;;3.92;;
23434;SDS011;11890;45.380;11.028;2022-11-20T03:51:34;7.38;;;4.30;;
23434;SDS011;11890;45.380;11.028;2022-11-20T03:54:03;5.93;;;3.80;;
23434;SDS011;11890;45.380;11.028;2022-11-20T03:56:34;6.13;;;3.83;;
23434;SDS011;11890;45.380;11.028;2022-11-20T03:59:03;7.70;;;4.15;;
23434;SDS011;11890;45.380;11.028;2022-11-20T04:01:31;7.50;;;4.10;;
23434;SDS011;11890;45.380;11.028;2022-11-20T04:04:01;8.57;;;3.78;;
23434;SDS011;11890;45.380;11.028;2022-11-20T04:06:30;5.65;;;3.42;;
23434;SDS011;11890;45.380;11.028;2022-11-20T04:09:01;7.03;;;3.92;;
23434;SDS011;11890;45.380;11.028;2022-11-20T04:11:30;6.65;;;3.45;;
23434;SDS011;11890;45.380;11.028;2022-11-20T04:14:02;6.45;;;3.85;;
23434;SDS011;11890;45.380;11.028;2022-11-20T04:16:32;6.53;;;3.80;;
23434;SDS011;11890;45.380;11.028;2022-11-20T04:19:02;7.32;;;3.50;;
23434;SDS011;11890;45.380;11.028;2022-11-20T04:21:31;5.50;;;2.90;;
23434;SDS011;11890;45.380;11.028;2022-11-20T04:23:59;6.25;;;3.60;;
23434;SDS011;11890;45.380;11.028;2022-11-20T04:26:27;5.72;;;3.70;;
23434;SDS011;11890;45.380;11.028;2022-11-20T04:28:56;6.55;;;3.55;;
23434;SDS011;11890;45.380;11.028;2022-11-20T04:31:25;8.68;;;3.42;;
23434;SDS011;11890;45.380;11.028;2022-11-20T04:33:54;6.88;;;3.90;;
23434;SDS011;11890;45.380;11.028;2022-11-20T04:36:23;7.05;;;3.88;;
23434;SDS011;11890;45.380;11.028;2022-11-20T04:38:52;5.78;;;3.53;;
23434;SDS011;11890;45.380;11.028;2022-11-20T04:41:23;5.90;;;3.60;;
23434;SDS011;11890;45.380;11.028;2022-11-20T04:43:54;11.02;;;3.50;;
23434;SDS011;11890;45.380;11.028;2022-11-20T04:46:26;5.05;;;3.40;;
23434;SDS011;11890;45.380;11.028;2022-11-20T04:48:54;6.47;;;3.60;;
23434;SDS011;11890;45.380;11.028;2022-11-20T04:51:22;5.63;;;3.45;;
23434;SDS011;11890;45.380;11.028;2022-11-20T04:53:50;6.25;;;3.25;;
23434;SDS011;11890;45.380;11.028;2022-11-20T04:56:18;6.13;;;3.45;;
23434;SDS011;11890;45.380;11.028;2022-11-20T04:58:45;6.80;;;3.38;;
23434;SDS011;11890;45.380;11.028;2022-11-20T05:01:13;6.00;;;3.05;;
23434;SDS011;11890;45.380;11.028;2022-11-20T05:03:42;5.95;;;3.17;;
23434;SDS011;11890;45.380;11.028;2022-11-20T05:06:11;4.93;;;2.83;;
23434;SDS011;11890;45.380;11.028;2022-11-20T05:08:40;5.55;;;3.30;;
23434;SDS011;11890;45.380;11.028;2022-11-20T05:11:14;6.53;;;3.63;;
23434;SDS011;11890;45.380;11.028;2022-11-20T05:13:44;5.20;;;3.35;;
23434;SDS011;11890;45.380;11.028;2022-11-20T05:16:12;8.80;;;3.72;;
23434;SDS011;11890;45.380;11.028;2022-11-20T05:18:41;6.15;;;3.15;;
23434;SDS011;11890;45.380;11.028;2022-11-20T05:21:10;6.30;;;3.40;;
23434;SDS011;11890;45.380;11.028;2022-11-20T05:23:38;6.80;;;4.18;;
23434;SDS011;11890;45.380;11.028;2022-11-20T05:26:08;5.38;;;3.65;;
23434;SDS011;11890;45.380;11.028;2022-11-20T05:28:40;5.97;;;3.50;;
23434;SDS011;11890;45.380;11.028;2022-11-20T05:31:08;4.97;;;3.22;;
23434;SDS011;11890;45.380;11.028;2022-11-20T05:33:39;5.65;;;3.30;;
23434;SDS011;11890;45.380;11.028;2022-11-20T05:36:07;7.65;;;3.78;;
23434;SDS011;11890;45.380;11.028;2022-11-20T05:38:36;6.95;;;3.45;;
23434;SDS011;11890;45.380;11.028;2022-11-20T05:41:07;6.32;;;3.80;;
23434;SDS011;11890;45.380;11.028;2022-11-20T05:43:40;4.95;;;2.95;;
23434;SDS011;11890;45.380;11.028;2022-11-20T05:46:09;4.38;;;2.97;;
23434;SDS011;11890;45.380;11.028;2022-11-20T05:48:39;5.60;;;3.20;;
23434;SDS011;11890;45.380;11.028;2022-11-20T05:51:08;6.07;;;3.88;;
23434;SDS011;11890;45.380;11.028;2022-11-20T05:53:37;4.88;;;3.00;;
23434;SDS011;11890;45.380;11.028;2022-11-20T05:56:14;6.45;;;3.63;;
23434;SDS011;11890;45.380;11.028;2022-11-20T05:58:44;6.13;;;3.53;;
23434;SDS011;11890;45.380;11.028;2022-11-20T06:03:47;5.30;;;3.22;;
23434;SDS011;11890;45.380;11.028;2022-11-20T06:06:17;6.05;;;3.20;;
23434;SDS011;11890;45.380;11.028;2022-11-20T06:08:46;7.65;;;3.78;;
23434;SDS011;11890;45.380;11.028;2022-11-20T06:11:14;6.68;;;3.05;;
23434;SDS011;11890;45.380;11.028;2022-11-20T06:13:42;5.72;;;3.42;;
23434;SDS011;11890;45.380;11.028;2022-11-20T06:16:10;7.07;;;3.15;;
23434;SDS011;11890;45.380;11.028;2022-11-20T06:18:39;6.85;;;2.85;;
23434;SDS011;11890;45.380;11.028;2022-11-20T06:21:16;5.13;;;3.25;;
23434;SDS011;11890;45.380;11.028;2022-11-20T06:23:45;6.00;;;3.42;;
23434;SDS011;11890;45.380;11.028;2022-11-20T06:26:14;5.10;;;3.05;;
23434;SDS011;11890;45.380;11.028;2022-11-20T06:28:44;5.75;;;3.15;;
23434;SDS011;11890;45.380;11.028;2022-11-20T06:31:12;7.65;;;4.15;;
23434;SDS011;11890;45.380;11.028;2022-11-20T06:33:42;6.63;;;4.15;;
23434;SDS011;11890;45.380;11.028;2022-11-20T06:36:10;5.65;;;3.63;;
23434;SDS011;11890;45.380;11.028;2022-11-20T06:38:39;8.05;;;4.15;;
23434;SDS011;11890;45.380;11.028;2022-11-20T06:41:08;5.70;;;3.13;;
23434;SDS011;11890;45.380;11.028;2022-11-20T06:43:38;6.35;;;3.60;;
23434;SDS011;11890;45.380;11.028;2022-11-20T06:46:05;5.72;;;3.50;;
23434;SDS011;11890;45.380;11.028;2022-11-20T06:48:33;6.35;;;3.40;;
23434;SDS011;11890;45.380;11.028;2022-11-20T06:51:02;5.20;;;3.38;;
23434;SDS011;11890;45.380;11.028;2022-11-20T06:53:31;6.78;;;3.67;;
23434;SDS011;11890;45.380;11.028;2022-11-20T06:55:59;7.05;;;4.05;;
23434;SDS011;11890;45.380;11.028;2022-11-20T06:58:27;6.45;;;3.20;;
23434;SDS011;11890;45.380;11.028;2022-11-20T07:00:58;5.40;;;3.33;;
23434;SDS011;11890;45.380;11.028;2022-11-20T07:03:26;5.72;;;3.58;;
23434;SDS011;11890;45.380;11.028;2022-11-20T07:05:55;5.63;;;3.22;;
23434;SDS011;11890;45.380;11.028;2022-11-20T07:08:23;8.02;;;3.53;;
23434;SDS011;11890;45.380;11.028;2022-11-20T07:10:51;5.90;;;3.28;;
23434;SDS011;11890;45.380;11.028;2022-11-20T07:13:18;7.85;;;3.42;;
23434;SDS011;11890;45.380;11.028;2022-11-20T07:15:46;5.78;;;3.30;;
23434;SDS011;11890;45.380;11.028;2022-11-20T07:18:13;6.32;;;3.60;;
23434;SDS011;11890;45.380;11.028;2022-11-20T07:20:40;8.65;;;4.22;;
23434;SDS011;11890;45.380;11.028;2022-11-20T07:23:08;7.57;;;3.65;;
23434;SDS011;11890;45.380;11.028;2022-11-20T07:25:35;6.55;;;3.88;;
23434;SDS011;11890;45.380;11.028;2022-11-20T07:28:02;5.80;;;3.15;;
23434;SDS011;11890;45.380;11.028;2022-11-20T07:30:30;6.70;;;3.10;;
23434;SDS011;11890;45.380;11.028;2022-11-20T07:32:58;7.72;;;3.60;;
23434;SDS011;11890;45.380;11.028;2022-11-20T07:35:25;12.45;;;3.67;;
23434;SDS011;11890;45.380;11.028;2022-11-20T07:37:52;6.28;;;3.10;;
23434;SDS011;11890;45.380;11.028;2022-11-20T07:40:20;5.00;;;3.13;;
23434;SDS011;11890;45.380;11.028;2022-11-20T07:42:48;6.50;;;2.85;;
23434;SDS011;11890;45.380;11.028;2022-11-20T07:45:16;8.02;;;3.58;;
23434;SDS011;11890;45.380;11.028;2022-11-20T07:47:44;6.93;;;3.70;;
23434;SDS011;11890;45.380;11.028;2022-11-20T07:50:11;8.02;;;4.00;;
23434;SDS011;11890;45.380;11.028;2022-11-20T07:52:40;11.27;;;4.03;;
23434;SDS011;11890;45.380;11.028;2022-11-20T07:55:08;5.90;;;3.50;;
23434;SDS011;11890;45.380;11.028;2022-11-20T07:57:36;6.70;;;3.58;;
23434;SDS011;11890;45.380;11.028;2022-11-20T08:00:04;5.68;;;2.92;;
23434;SDS011;11890;45.380;11.028;2022-11-20T08:02:38;7.07;;;3.25;;
23434;SDS011;11890;45.380;11.028;2022-11-20T08:05:06;4.80;;;3.20;;
23434;SDS011;11890;45.380;11.028;2022-11-20T08:07:44;8.50;;;3.15;;
23434;SDS011;11890;45.380;11.028;2022-11-20T08:10:12;4.93;;;2.70;;
23434;SDS011;11890;45.380;11.028;2022-11-20T08:12:49;6.57;;;3.00;;
23434;SDS011;11890;45.380;11.028;2022-11-20T08:15:36;3.88;;;2.72;;
23434;SDS011;11890;45.380;11.028;2022-11-20T08:18:06;5.13;;;2.50;;
23434;SDS011;11890;45.380;11.028;2022-11-20T08:20:55;4.70;;;3.08;;
23434;SDS011;11890;45.380;11.028;2022-11-20T08:23:23;5.35;;;2.25;;
23434;SDS011;11890;45.380;11.028;2022-11-20T08:25:50;4.00;;;2.15;;
23434;SDS011;11890;45.380;11.028;2022-11-20T08:28:18;3.80;;;2.53;;
23434;SDS011;11890;45.380;11.028;2022-11-20T08:30:48;4.82;;;2.92;;
23434;SDS011;11890;45.380;11.028;2022-11-20T08:33:17;4.75;;;2.47;;
23434;SDS011;11890;45.380;11.028;2022-11-20T08:35:45;4.00;;;2.40;;
23434;SDS011;11890;45.380;11.028;2022-11-20T08:38:12;6.60;;;2.75;;
23434;SDS011;11890;45.380;11.028;2022-11-20T08:40:40;5.78;;;2.03;;
23434;SDS011;11890;45.380;11.028;2022-11-20T08:43:07;3.45;;;2.03;;
23434;SDS011;11890;45.380;11.028;2022-11-20T08:45:34;2.55;;;1.77;;
23434;SDS011;11890;45.380;11.028;2022-11-20T08:48:02;3.92;;;2.25;;
23434;SDS011;11890;45.380;11.028;2022-11-20T08:50:30;3.85;;;2.25;;
23434;SDS011;11890;45.380;11.028;2022-11-20T08:53:03;5.32;;;2.40;;
23434;SDS011;11890;45.380;11.028;2022-11-20T08:55:31;4.80;;;2.22;;
23434;SDS011;11890;45.380;11.028;2022-11-20T08:58:03;4.53;;;2.25;;
23434;SDS011;11890;45.380;11.028;2022-11-20T09:00:31;3.55;;;2.13;;
23434;SDS011;11890;45.380;11.028;2022-11-20T09:02:59;3.15;;;2.00;;
23434;SDS011;11890;45.380;11.028;2022-11-20T09:05:28;4.80;;;2.30;;
23434;SDS011;11890;45.380;11.028;2022-11-20T09:07:56;5.60;;;2.63;;
23434;SDS011;11890;45.380;11.028;2022-11-20T09:10:24;4.70;;;2.35;;
23434;SDS011;11890;45.380;11.028;2022-11-20T09:12:52;5.88;;;2.60;;
23434;SDS011;11890;45.380;11.028;2022-11-20T09:15:22;4.30;;;2.70;;
23434;SDS011;11890;45.380;11.028;2022-11-20T09:17:51;4.85;;;2.53;;
23434;SDS011;11890;45.380;11.028;2022-11-20T09:20:23;4.15;;;2.47;;
23434;SDS011;11890;45.380;11.028;2022-11-20T09:22:51;5.03;;;2.67;;
23434;SDS011;11890;45.380;11.028;2022-11-20T09:25:19;6.43;;;2.45;;
23434;SDS011;11890;45.380;11.028;2022-11-20T09:27:46;6.30;;;3.05;;
23434;SDS011;11890;45.380;11.028;2022-11-20T09:30:14;4.43;;;2.63;;
23434;SDS011;11890;45.380;11.028;2022-11-20T09:32:42;4.78;;;2.30;;
23434;SDS011;11890;45.380;11.028;2022-11-20T09:35:09;4.18;;;2.22;;
23434;SDS011;11890;45.380;11.028;2022-11-20T09:37:38;3.25;;;1.90;;
23434;SDS011;11890;45.380;11.028;2022-11-20T09:40:05;3.10;;;2.00;;
23434;SDS011;11890;45.380;11.028;2022-11-20T09:42:57;4.57;;;2.65;;
23434;SDS011;11890;45.380;11.028;2022-11-20T09:49:05;4.00;;;1.85;;
23434;SDS011;11890;45.380;11.028;2022-11-20T09:54:39;3.08;;;1.42;;
23434;SDS011;11890;45.380;11.028;2022-11-20T09:57:11;2.17;;;1.33;;
23434;SDS011;11890;45.380;11.028;2022-11-20T09:59:56;4.28;;;1.50;;
23434;SDS011;11890;45.380;11.028;2022-11-20T10:10:40;3.65;;;1.55;;
23434;SDS011;11890;45.380;11.028;2022-11-20T10:22:13;2.95;;;1.52;;
23434;SDS011;11890;45.380;11.028;2022-11-20T10:25:14;3.00;;;1.83;;
23434;SDS011;11890;45.380;11.028;2022-11-20T10:30:22;4.43;;;1.67;;
23434;SDS011;11890;45.380;11.028;2022-11-20T10:32:52;3.63;;;2.05;;
23434;SDS011;11890;45.380;11.028;2022-11-20T10:37:59;3.60;;;1.95;;
23434;SDS011;11890;45.380;11.028;2022-11-20T10:43:01;4.95;;;2.15;;
23434;SDS011;11890;45.380;11.028;2022-11-20T10:48:19;6.50;;;2.47;;
23434;SDS011;11890;45.380;11.028;2022-11-20T10:53:55;5.60;;;2.20;;
23434;SDS011;11890;45.380;11.028;2022-11-20T10:56:42;6.70;;;3.78;;
23434;SDS011;11890;45.380;11.028;2022-11-20T11:02:16;5.75;;;2.55;;
23434;SDS011;11890;45.380;11.028;2022-11-20T11:04:46;4.97;;;2.35;;
23434;SDS011;11890;45.380;11.028;2022-11-20T11:07:22;3.88;;;2.22;;
23434;SDS011;11890;45.380;11.028;2022-11-20T11:09:57;4.40;;;2.38;;
23434;SDS011;11890;45.380;11.028;2022-11-20T11:12:25;3.95;;;2.00;;
23434;SDS011;11890;45.380;11.028;2022-11-20T11:14:55;36.78;;;5.18;;
23434;SDS011;11890;45.380;11.028;2022-11-20T11:17:31;7.95;;;2.38;;
23434;SDS011;11890;45.380;11.028;2022-11-20T11:20:13;4.03;;;2.33;;
23434;SDS011;11890;45.380;11.028;2022-11-20T11:22:50;7.80;;;2.97;;
23434;SDS011;11890;45.380;11.028;2022-11-20T11:27:58;4.45;;;2.25;;
23434;SDS011;11890;45.380;11.028;2022-11-20T11:30:29;5.93;;;3.03;;
23434;SDS011;11890;45.380;11.028;2022-11-20T11:33:10;4.00;;;2.45;;
23434;SDS011;11890;45.380;11.028;2022-11-20T11:35:44;7.43;;;2.50;;
23434;SDS011;11890;45.380;11.028;2022-11-20T11:38:19;3.92;;;2.10;;
23434;SDS011;11890;45.380;11.028;2022-11-20T11:40:52;4.68;;;2.67;;
23434;SDS011;11890;45.380;11.028;2022-11-20T11:43:22;5.28;;;2.85;;
23434;SDS011;11890;45.380;11.028;2022-11-20T11:49:11;4.45;;;2.78;;
23434;SDS011;11890;45.380;11.028;2022-11-20T11:54:37;8.18;;;4.75;;
23434;SDS011;11890;45.380;11.028;2022-11-20T12:00:06;6.85;;;3.83;;
23434;SDS011;11890;45.380;11.028;2022-11-20T12:02:37;7.53;;;4.70;;
23434;SDS011;11890;45.380;11.028;2022-11-20T12:11:13;9.07;;;4.82;;
23434;SDS011;11890;45.380;11.028;2022-11-20T12:13:54;7.70;;;4.35;;
23434;SDS011;11890;45.380;11.028;2022-11-20T12:16:42;8.88;;;4.85;;
23434;SDS011;11890;45.380;11.028;2022-11-20T12:19:10;7.22;;;4.78;;
23434;SDS011;11890;45.380;11.028;2022-11-20T12:27:43;11.18;;;6.00;;
23434;SDS011;11890;45.380;11.028;2022-11-20T12:30:21;12.65;;;6.65;;
23434;SDS011;11890;45.380;11.028;2022-11-20T12:33:02;13.10;;;7.10;;
23434;SDS011;11890;45.380;11.028;2022-11-20T12:53:34;11.15;;;6.78;;
23434;SDS011;11890;45.380;11.028;2022-11-20T12:59:06;9.65;;;5.25;;
23434;SDS011;11890;45.380;11.028;2022-11-20T13:07:33;11.45;;;6.57;;
23434;SDS011;11890;45.380;11.028;2022-11-20T13:10:03;13.77;;;6.68;;
23434;SDS011;11890;45.380;11.028;2022-11-20T13:12:42;15.13;;;7.50;;
23434;SDS011;11890;45.380;11.028;2022-11-20T13:18:09;9.88;;;6.40;;
23434;SDS011;11890;45.380;11.028;2022-11-20T13:20:42;12.60;;;6.72;;
23434;SDS011;11890;45.380;11.028;2022-11-20T13:23:11;15.70;;;7.32;;
23434;SDS011;11890;45.380;11.028;2022-11-20T13:25:49;16.20;;;8.18;;
23434;SDS011;11890;45.380;11.028;2022-11-20T13:30:51;15.65;;;7.75;;
23434;SDS011;11890;45.380;11.028;2022-11-20T13:33:32;16.42;;;7.82;;
23434;SDS011;11890;45.380;11.028;2022-11-20T13:36:02;20.20;;;9.20;;
23434;SDS011;11890;45.380;11.028;2022-11-20T13:38:47;16.50;;;8.70;;
23434;SDS011;11890;45.380;11.028;2022-11-20T13:41:26;15.48;;;8.00;;
23434;SDS011;11890;45.380;11.028;2022-11-20T13:44:04;19.40;;;8.45;;
23434;SDS011;11890;45.380;11.028;2022-11-20T13:46:36;18.85;;;8.45;;
23434;SDS011;11890;45.380;11.028;2022-11-20T13:49:07;19.50;;;8.82;;
23434;SDS011;11890;45.380;11.028;2022-11-20T13:51:51;16.70;;;8.48;;
23434;SDS011;11890;45.380;11.028;2022-11-20T13:55:11;19.85;;;8.98;;
23434;SDS011;11890;45.380;11.028;2022-11-20T14:00:57;17.77;;;9.18;;
23434;SDS011;11890;45.380;11.028;2022-11-20T14:03:30;16.52;;;8.15;;
23434;SDS011;11890;45.380;11.028;2022-11-20T14:06:25;17.45;;;8.38;;
23434;SDS011;11890;45.380;11.028;2022-11-20T14:08:58;17.05;;;9.02;;
23434;SDS011;11890;45.380;11.028;2022-11-20T14:11:30;12.00;;;7.43;;
23434;SDS011;11890;45.380;11.028;2022-11-20T14:13:59;16.90;;;8.23;;
23434;SDS011;11890;45.380;11.028;2022-11-20T14:16:30;17.20;;;9.48;;
23434;SDS011;11890;45.380;11.028;2022-11-20T14:21:49;15.10;;;7.97;;
23434;SDS011;11890;45.380;11.028;2022-11-20T14:24:19;20.92;;;9.20;;
23434;SDS011;11890;45.380;11.028;2022-11-20T14:26:49;17.80;;;7.47;;
23434;SDS011;11890;45.380;11.028;2022-11-20T14:29:19;18.45;;;7.78;;
23434;SDS011;11890;45.380;11.028;2022-11-20T14:31:54;15.00;;;7.63;;
23434;SDS011;11890;45.380;11.028;2022-11-20T14:34:24;14.63;;;7.80;;
23434;SDS011;11890;45.380;11.028;2022-11-20T14:36:57;17.05;;;8.95;;
23434;SDS011;11890;45.380;11.028;2022-11-20T14:39:29;14.35;;;7.90;;
23434;SDS011;11890;45.380;11.028;2022-11-20T14:42:03;15.07;;;7.78;;
23434;SDS011;11890;45.380;11.028;2022-11-20T14:44:41;13.95;;;7.78;;
23434;SDS011;11890;45.380;11.028;2022-11-20T14:47:10;14.15;;;7.70;;
23434;SDS011;11890;45.380;11.028;2022-11-20T14:49:40;17.30;;;7.10;;
23434;SDS011;11890;45.380;11.028;2022-11-20T14:52:15;16.00;;;7.90;;
23434;SDS011;11890;45.380;11.028;2022-11-20T14:54:45;15.65;;;9.30;;
23434;SDS011;11890;45.380;11.028;2022-11-20T14:59:49;17.35;;;7.88;;
23434;SDS011;11890;45.380;11.028;2022-11-20T15:02:16;15.75;;;8.20;;
23434;SDS011;11890;45.380;11.028;2022-11-20T15:04:45;15.85;;;8.60;;
23434;SDS011;11890;45.380;11.028;2022-11-20T15:07:26;20.27;;;9.60;;
23434;SDS011;11890;45.380;11.028;2022-11-20T15:10:08;17.40;;;8.05;;
23434;SDS011;11890;45.380;11.028;2022-11-20T15:12:38;19.05;;;9.13;;
23434;SDS011;11890;45.380;11.028;2022-11-20T15:15:14;14.60;;;7.63;;
23434;SDS011;11890;45.380;11.028;2022-11-20T15:17:47;16.58;;;8.95;;
23434;SDS011;11890;45.380;11.028;2022-11-20T15:20:15;19.10;;;9.13;;
23434;SDS011;11890;45.380;11.028;2022-11-20T15:22:43;17.58;;;9.25;;
23434;SDS011;11890;45.380;11.028;2022-11-20T15:25:12;19.35;;;10.05;;
23434;SDS011;11890;45.380;11.028;2022-11-20T15:27:43;19.40;;;9.13;;
23434;SDS011;11890;45.380;11.028;2022-11-20T15:30:13;16.08;;;9.48;;
23434;SDS011;11890;45.380;11.028;2022-11-20T15:32:43;19.05;;;9.95;;
23434;SDS011;11890;45.380;11.028;2022-11-20T15:35:12;19.20;;;9.93;;
23434;SDS011;11890;45.380;11.028;2022-11-20T15:37:40;24.77;;;11.07;;
23434;SDS011;11890;45.380;11.028;2022-11-20T15:40:08;19.20;;;10.00;;
23434;SDS011;11890;45.380;11.028;2022-11-20T15:42:36;18.20;;;9.80;;
23434;SDS011;11890;45.380;11.028;2022-11-20T15:45:04;17.70;;;8.77;;
23434;SDS011;11890;45.380;11.028;2022-11-20T15:47:32;19.30;;;9.90;;
23434;SDS011;11890;45.380;11.028;2022-11-20T15:50:02;18.00;;;9.32;;
23434;SDS011;11890;45.380;11.028;2022-11-20T15:52:30;24.05;;;10.55;;
23434;SDS011;11890;45.380;11.028;2022-11-20T15:55:09;20.60;;;9.73;;
23434;SDS011;11890;45.380;11.028;2022-11-20T15:57:37;16.48;;;8.75;;
23434;SDS011;11890;45.380;11.028;2022-11-20T16:00:05;18.27;;;9.77;;
23434;SDS011;11890;45.380;11.028;2022-11-20T16:02:36;20.85;;;11.05;;
23434;SDS011;11890;45.380;11.028;2022-11-20T16:05:03;18.67;;;9.85;;
23434;SDS011;11890;45.380;11.028;2022-11-20T16:07:36;19.00;;;10.03;;
23434;SDS011;11890;45.380;11.028;2022-11-20T16:10:03;21.58;;;9.90;;
23434;SDS011;11890;45.380;11.028;2022-11-20T16:12:31;20.40;;;11.25;;
23434;SDS011;11890;45.380;11.028;2022-11-20T16:15:17;19.27;;;9.82;;
23434;SDS011;11890;45.380;11.028;2022-11-20T16:18:03;17.25;;;9.40;;
23434;SDS011;11890;45.380;11.028;2022-11-20T16:20:31;16.92;;;10.07;;
23434;SDS011;11890;45.380;11.028;2022-11-20T16:22:58;18.23;;;10.07;;
23434;SDS011;11890;45.380;11.028;2022-11-20T16:25:26;22.92;;;11.77;;
23434;SDS011;11890;45.380;11.028;2022-11-20T16:27:54;17.48;;;9.82;;
23434;SDS011;11890;45.380;11.028;2022-11-20T16:30:21;18.63;;;10.10;;
23434;SDS011;11890;45.380;11.028;2022-11-20T16:32:49;20.85;;;10.40;;
23434;SDS011;11890;45.380;11.028;2022-11-20T16:35:17;18.58;;;10.13;;
23434;SDS011;11890;45.380;11.028;2022-11-20T16:37:44;18.20;;;9.52;;
23434;SDS011;11890;45.380;11.028;2022-11-20T16:40:12;30.10;;;11.40;;
23434;SDS011;11890;45.380;11.028;2022-11-20T16:42:40;18.73;;;10.73;;
23434;SDS011;11890;45.380;11.028;2022-11-20T16:45:08;23.08;;;11.88;;
23434;SDS011;11890;45.380;11.028;2022-11-20T16:47:36;23.90;;;11.13;;